PWSweather.com
Personal Weather Stations
Station Observations
COONRAPIDS
Minneapolis, MN 55433

Minneapolis, MN 55433

Lat: 45.187721, Lon: -93.36828

Elevation: 898

Station Type: Davis Vantage Pro 2

Latest ConditionsUpdated 8:10:00 PM CST Wednesday, Feb 10, 2016
Currently Today's Max Today's Min Today's Average
Temperature 10.6°F-11.9°C 13.6°F-10.2°C 2.9°F-16.2°C 7.5°F-13.6°C
Dew Point -2.8°F-19.3°C -2.3°F-19.1°C -5.3°F-20.7°C -3.9°F-19.9°C
Winds Calm Calm 3.5 mph NNE5.6 kmh NNE - 0.4 mph 0.6 kmh
Wind Gusts -- 5.8 mph9.3 kmh - -
Humidity 54% 70% 44% 60%
Pressure 30.31 in1026.4 mb 30.31 in1026.4 mb 30.18 in1022.0 mb -
Hour Temp Dew Point Humidity Winds Wind Gusts Pressure Precip Precip Rate Daily Precip Total
08:10 PM 10.6°F-11.9°C -2.8°F-19.3°C 54% Calm Calm -- 30.31 in1026.4 mb - 0.00 in0.0 mm 0.00 in0.0 mm
08:00 PM 10.6°F-11.9°C -2.8°F-19.3°C 54% Calm Calm -- 30.31 in1026.4 mb - 0.00 in0.0 mm 0.00 in0.0 mm
07:50 PM 10.6°F-11.9°C -3.2°F-19.6°C 53% Calm Calm 2.3 mph3.7 kmh 30.31 in1026.4 mb - 0.00 in0.0 mm 0.00 in0.0 mm
07:40 PM 10.6°F-11.9°C -2.8°F-19.3°C 54% Calm Calm -- 30.30 in1026.1 mb - 0.00 in0.0 mm 0.00 in0.0 mm
07:30 PM 10.6°F-11.9°C -2.8°F-19.3°C 54% Calm Calm -- 30.30 in1026.1 mb - 0.00 in0.0 mm 0.00 in0.0 mm
07:20 PM 10.6°F-11.9°C -2.8°F-19.3°C 54% Calm Calm 1.2 mph1.9 kmh 30.30 in1026.1 mb - 0.00 in0.0 mm 0.00 in0.0 mm
07:10 PM 10.6°F-11.9°C -2.8°F-19.3°C 54% Calm Calm -- 30.29 in1025.7 mb - 0.00 in0.0 mm 0.00 in0.0 mm
07:00 PM 10.6°F-11.9°C -3.2°F-19.6°C 53% Calm Calm -- 30.29 in1025.7 mb - 0.00 in0.0 mm 0.00 in0.0 mm
06:50 PM 10.6°F-11.9°C -3.2°F-19.6°C 53% Calm Calm -- 30.29 in1025.7 mb - 0.00 in0.0 mm 0.00 in0.0 mm
06:40 PM 10.6°F-11.9°C -3.2°F-19.6°C 53% Calm Calm 2.3 mph3.7 kmh 30.29 in1025.7 mb - 0.00 in0.0 mm 0.00 in0.0 mm
06:30 PM 10.5°F-11.9°C -3.3°F-19.6°C 53% 1.2 mph NE1.9 kmh NE 3.5 mph5.6 kmh 30.28 in1025.4 mb - 0.00 in0.0 mm 0.00 in0.0 mm
06:20 PM 10.5°F-11.9°C -3.7°F-19.8°C 52% 2.3 mph NNE3.7 kmh NNE 3.5 mph5.6 kmh 30.27 in1025.1 mb - 0.00 in0.0 mm 0.00 in0.0 mm
06:10 PM 10.5°F-11.9°C -3.3°F-19.6°C 53% 1.2 mph NE1.9 kmh NE 3.5 mph5.6 kmh 30.27 in1025.1 mb - 0.00 in0.0 mm 0.00 in0.0 mm
06:00 PM 10.4°F-12.0°C -3.8°F-19.9°C 52% 1.2 mph NE1.9 kmh NE 1.2 mph1.9 kmh 30.27 in1025.1 mb - 0.00 in0.0 mm 0.00 in0.0 mm
05:50 PM 10.4°F-12.0°C -3.8°F-19.9°C 52% Calm Calm 1.2 mph1.9 kmh 30.25 in1024.4 mb - 0.00 in0.0 mm 0.00 in0.0 mm
05:40 PM 10.5°F-11.9°C -3.7°F-19.8°C 52% Calm Calm -- 30.25 in1024.4 mb - 0.00 in0.0 mm 0.00 in0.0 mm
05:30 PM 10.6°F-11.9°C -3.6°F-19.8°C 52% 1.2 mph NE1.9 kmh NE 3.5 mph5.6 kmh 30.24 in1024.0 mb - 0.00 in0.0 mm 0.00 in0.0 mm
05:20 PM 10.7°F-11.8°C -3.9°F-19.9°C 51% 1.2 mph ENE1.9 kmh ENE 3.5 mph5.6 kmh 30.24 in1024.0 mb - 0.00 in0.0 mm 0.00 in0.0 mm
05:10 PM 11.1°F-11.6°C -4.4°F-20.2°C 49% 2.3 mph NE3.7 kmh NE 4.6 mph7.4 kmh 30.24 in1024.0 mb - 0.00 in0.0 mm 0.00 in0.0 mm
05:00 PM 11.4°F-11.4°C -4.5°F-20.3°C 48% 2.3 mph NNE3.7 kmh NNE 3.5 mph5.6 kmh 30.24 in1024.0 mb - 0.00 in0.0 mm 0.00 in0.0 mm
04:50 PM 11.7°F-11.3°C -4.7°F-20.4°C 47% 2.3 mph NE3.7 kmh NE 3.5 mph5.6 kmh 30.23 in1023.7 mb - 0.00 in0.0 mm 0.00 in0.0 mm
04:40 PM 11.8°F-11.2°C -5.0°F-20.6°C 46% Calm Calm 2.3 mph3.7 kmh 30.23 in1023.7 mb - 0.00 in0.0 mm 0.00 in0.0 mm
04:30 PM 12.3°F-10.9°C -4.6°F-20.3°C 46% 1.2 mph NE1.9 kmh NE 3.5 mph5.6 kmh 30.22 in1023.4 mb - 0.00 in0.0 mm 0.00 in0.0 mm
04:20 PM 12.5°F-10.8°C -5.3°F-20.7°C 44% 2.3 mph NNE3.7 kmh NNE 2.3 mph3.7 kmh 30.22 in1023.4 mb - 0.00 in0.0 mm 0.00 in0.0 mm
04:10 PM 12.5°F-10.8°C -5.3°F-20.7°C 44% 3.5 mph NNE5.6 kmh NNE 5.8 mph9.3 kmh 30.22 in1023.4 mb - 0.00 in0.0 mm 0.00 in0.0 mm
04:00 PM 12.7°F-10.7°C -4.7°F-20.4°C 45% Calm Calm 3.5 mph5.6 kmh 30.21 in1023.0 mb - 0.00 in0.0 mm 0.00 in0.0 mm
03:50 PM 13.0°F-10.6°C -4.0°F-20.0°C 46% 1.2 mph NE1.9 kmh NE 5.8 mph9.3 kmh 30.21 in1023.0 mb - 0.00 in0.0 mm 0.00 in0.0 mm
03:40 PM 12.6°F-10.8°C -4.3°F-20.2°C 46% 1.2 mph NE1.9 kmh NE 3.5 mph5.6 kmh 30.21 in1023.0 mb - 0.00 in0.0 mm 0.00 in0.0 mm
03:30 PM 12.9°F-10.6°C -4.0°F-20.0°C 46% 2.3 mph NNE3.7 kmh NNE 5.8 mph9.3 kmh 30.21 in1023.0 mb - 0.00 in0.0 mm 0.00 in0.0 mm
03:20 PM 13.2°F-10.4°C -4.2°F-20.1°C 45% Calm Calm 4.6 mph7.4 kmh 30.20 in1022.7 mb - 0.00 in0.0 mm 0.00 in0.0 mm
03:10 PM 13.6°F-10.2°C -2.9°F-19.4°C 47% Calm Calm 1.2 mph1.9 kmh 30.20 in1022.7 mb - 0.00 in0.0 mm 0.00 in0.0 mm
03:00 PM 13.1°F-10.5°C -3.8°F-19.9°C 46% 1.2 mph NNE1.9 kmh NNE 3.5 mph5.6 kmh 30.20 in1022.7 mb - 0.00 in0.0 mm 0.00 in0.0 mm
02:50 PM 12.8°F-10.7°C -4.1°F-20.1°C 46% Calm Calm -- 30.20 in1022.7 mb - 0.00 in0.0 mm 0.00 in0.0 mm
02:40 PM 12.7°F-10.7°C -3.7°F-19.8°C 47% Calm Calm -- 30.19 in1022.4 mb - 0.00 in0.0 mm 0.00 in0.0 mm
02:30 PM 12.4°F-10.9°C -3.6°F-19.8°C 48% Calm Calm 2.3 mph3.7 kmh 30.19 in1022.4 mb - 0.00 in0.0 mm 0.00 in0.0 mm
02:20 PM 12.3°F-10.9°C -2.8°F-19.3°C 50% 2.3 mph NNE3.7 kmh NNE 3.5 mph5.6 kmh 30.19 in1022.4 mb - 0.00 in0.0 mm 0.00 in0.0 mm
02:10 PM 12.4°F-10.9°C -2.3°F-19.1°C 51% 1.2 mph NE1.9 kmh NE 3.5 mph5.6 kmh 30.19 in1022.4 mb - 0.00 in0.0 mm 0.00 in0.0 mm
02:00 PM 12.5°F-10.8°C -2.6°F-19.2°C 50% Calm Calm -- 30.18 in1022.0 mb - 0.00 in0.0 mm 0.00 in0.0 mm
01:50 PM 12.4°F-10.9°C -3.2°F-19.6°C 49% Calm Calm 4.6 mph7.4 kmh 30.19 in1022.4 mb - 0.00 in0.0 mm 0.00 in0.0 mm
01:40 PM 12.1°F-11.1°C -3.0°F-19.4°C 50% Calm Calm -- 30.19 in1022.4 mb - 0.00 in0.0 mm 0.00 in0.0 mm
01:30 PM 11.7°F-11.3°C -3.8°F-19.9°C 49% Calm Calm -- 30.19 in1022.4 mb - 0.00 in0.0 mm 0.00 in0.0 mm
01:20 PM 11.8°F-11.2°C -3.3°F-19.6°C 50% Calm Calm -- 30.19 in1022.4 mb - 0.00 in0.0 mm 0.00 in0.0 mm
01:10 PM 11.4°F-11.4°C -3.3°F-19.6°C 51% 1.2 mph NE1.9 kmh NE 3.5 mph5.6 kmh 30.19 in1022.4 mb - 0.00 in0.0 mm 0.00 in0.0 mm
01:00 PM 11.3°F-11.5°C -3.3°F-19.6°C 51% Calm Calm -- 30.20 in1022.7 mb - 0.00 in0.0 mm 0.00 in0.0 mm
12:50 PM 11.2°F-11.6°C -3.4°F-19.7°C 51% Calm Calm -- 30.20 in1022.7 mb - 0.00 in0.0 mm 0.00 in0.0 mm
12:40 PM 11.1°F-11.6°C -3.5°F-19.7°C 51% Calm Calm -- 30.20 in1022.7 mb - 0.00 in0.0 mm 0.00 in0.0 mm
12:30 PM 11.1°F-11.6°C -3.1°F-19.5°C 52% Calm Calm 4.6 mph7.4 kmh 30.19 in1022.4 mb - 0.00 in0.0 mm 0.00 in0.0 mm
12:20 PM 11.0°F-11.7°C -2.8°F-19.3°C 53% Calm Calm -- 30.20 in1022.7 mb - 0.00 in0.0 mm 0.00 in0.0 mm
12:10 PM 10.5°F-11.9°C -3.3°F-19.6°C 53% Calm Calm -- 30.20 in1022.7 mb - 0.00 in0.0 mm 0.00 in0.0 mm
12:00 PM 10.5°F-11.9°C -3.3°F-19.6°C 53% 2.3 mph N3.7 kmh N 4.6 mph7.4 kmh 30.20 in1022.7 mb - 0.00 in0.0 mm 0.00 in0.0 mm
11:50 AM 9.6°F-12.4°C -3.7°F-19.8°C 54% Calm Calm -- 30.21 in1023.0 mb - 0.00 in0.0 mm 0.00 in0.0 mm
11:40 AM 9.5°F-12.5°C -3.1°F-19.5°C 56% Calm Calm -- 30.21 in1023.0 mb - 0.00 in0.0 mm 0.00 in0.0 mm
11:30 AM 9.2°F-12.7°C -3.3°F-19.6°C 56% 2.3 mph NNE3.7 kmh NNE 4.6 mph7.4 kmh 30.21 in1023.0 mb - 0.00 in0.0 mm 0.00 in0.0 mm
11:20 AM 9.1°F-12.7°C -3.1°F-19.5°C 57% Calm Calm -- 30.21 in1023.0 mb - 0.00 in0.0 mm 0.00 in0.0 mm
11:10 AM 8.2°F-13.2°C -3.2°F-19.6°C 59% Calm Calm -- 30.20 in1022.7 mb - 0.00 in0.0 mm 0.00 in0.0 mm
11:00 AM 8.1°F-13.3°C -3.3°F-19.6°C 59% Calm Calm 3.5 mph5.6 kmh 30.21 in1023.0 mb - 0.00 in0.0 mm 0.00 in0.0 mm
10:50 AM 7.4°F-13.7°C -3.6°F-19.8°C 60% Calm Calm -- 30.20 in1022.7 mb - 0.00 in0.0 mm 0.00 in0.0 mm
10:40 AM 6.9°F-13.9°C -3.7°F-19.8°C 61% Calm Calm -- 30.20 in1022.7 mb - 0.00 in0.0 mm 0.00 in0.0 mm
10:30 AM 6.7°F-14.1°C -3.9°F-19.9°C 61% Calm Calm -- 30.20 in1022.7 mb - 0.00 in0.0 mm 0.00 in0.0 mm
10:20 AM 6.7°F-14.1°C -4.3°F-20.2°C 60% Calm Calm -- 30.21 in1023.0 mb - 0.00 in0.0 mm 0.00 in0.0 mm
10:10 AM 6.5°F-14.2°C -4.1°F-20.1°C 61% Calm Calm -- 30.22 in1023.4 mb - 0.00 in0.0 mm 0.00 in0.0 mm
10:00 AM 6.1°F-14.4°C -4.1°F-20.1°C 62% Calm Calm -- 30.22 in1023.4 mb - 0.00 in0.0 mm 0.00 in0.0 mm
09:50 AM 5.8°F-14.6°C -4.1°F-20.1°C 63% Calm Calm -- 30.22 in1023.4 mb - 0.00 in0.0 mm 0.00 in0.0 mm
09:40 AM 5.5°F-14.7°C -4.1°F-20.1°C 64% Calm Calm -- 30.22 in1023.4 mb - 0.00 in0.0 mm 0.00 in0.0 mm
09:30 AM 5.0°F-15.0°C -4.5°F-20.3°C 64% Calm Calm -- 30.21 in1023.0 mb - 0.00 in0.0 mm 0.00 in0.0 mm
09:20 AM 4.9°F-15.1°C -4.6°F-20.3°C 64% Calm Calm -- 30.21 in1023.0 mb - 0.00 in0.0 mm 0.00 in0.0 mm
09:10 AM 4.6°F-15.2°C -4.9°F-20.5°C 64% Calm Calm -- 30.21 in1023.0 mb - 0.00 in0.0 mm 0.00 in0.0 mm
09:00 AM 4.6°F-15.2°C -4.3°F-20.2°C 66% Calm Calm -- 30.21 in1023.0 mb - 0.00 in0.0 mm 0.00 in0.0 mm
08:50 AM 4.4°F-15.3°C -4.5°F-20.3°C 66% Calm Calm -- 30.20 in1022.7 mb - 0.00 in0.0 mm 0.00 in0.0 mm
08:40 AM 4.4°F-15.3°C -4.5°F-20.3°C 66% Calm Calm -- 30.21 in1023.0 mb - 0.00 in0.0 mm 0.00 in0.0 mm
08:30 AM 4.2°F-15.4°C -4.7°F-20.4°C 66% Calm Calm -- 30.21 in1023.0 mb - 0.00 in0.0 mm 0.00 in0.0 mm
08:20 AM 3.8°F-15.7°C -4.4°F-20.2°C 68% Calm Calm -- 30.21 in1023.0 mb - 0.00 in0.0 mm 0.00 in0.0 mm
08:10 AM 3.5°F-15.8°C -4.7°F-20.4°C 68% Calm Calm -- 30.20 in1022.7 mb - 0.00 in0.0 mm 0.00 in0.0 mm
08:00 AM 3.2°F-16.0°C -5.0°F-20.6°C 68% Calm Calm -- 30.20 in1022.7 mb - 0.00 in0.0 mm 0.00 in0.0 mm
07:50 AM 3.0°F-16.1°C -5.2°F-20.7°C 68% Calm Calm -- 30.21 in1023.0 mb - 0.00 in0.0 mm 0.00 in0.0 mm
07:40 AM 3.0°F-16.1°C -4.9°F-20.5°C 69% Calm Calm 2.3 mph3.7 kmh 30.21 in1023.0 mb - 0.00 in0.0 mm 0.00 in0.0 mm
07:30 AM 3.0°F-16.1°C -4.9°F-20.5°C 69% 1.2 mph NE1.9 kmh NE 1.2 mph1.9 kmh 30.20 in1022.7 mb - 0.00 in0.0 mm 0.00 in0.0 mm
07:20 AM 2.9°F-16.2°C -5.0°F-20.6°C 69% Calm Calm -- 30.20 in1022.7 mb - 0.00 in0.0 mm 0.00 in0.0 mm
07:10 AM 2.9°F-16.2°C -4.9°F-20.5°C 69% 1.2 mph NNE1.9 kmh NNE 4.6 mph7.4 kmh 30.20 in1022.7 mb - 0.00 in0.0 mm 0.00 in0.0 mm
07:00 AM 3.0°F-16.1°C -4.9°F-20.5°C 69% 1.2 mph NE1.9 kmh NE 3.5 mph5.6 kmh 30.20 in1022.7 mb - 0.00 in0.0 mm 0.00 in0.0 mm
06:50 AM 3.1°F-16.1°C -4.8°F-20.4°C 69% Calm Calm 2.3 mph3.7 kmh 30.20 in1022.7 mb - 0.00 in0.0 mm 0.00 in0.0 mm
06:40 AM 3.1°F-16.1°C -4.8°F-20.4°C 69% Calm Calm -- 30.20 in1022.7 mb - 0.00 in0.0 mm 0.00 in0.0 mm
06:30 AM 3.2°F-16.0°C -4.4°F-20.2°C 70% Calm Calm -- 30.19 in1022.4 mb - 0.00 in0.0 mm 0.00 in0.0 mm
06:20 AM 3.3°F-15.9°C -4.6°F-20.3°C 69% Calm Calm -- 30.19 in1022.4 mb - 0.00 in0.0 mm 0.00 in0.0 mm
06:10 AM 3.3°F-15.9°C -4.3°F-20.2°C 70% Calm Calm -- 30.20 in1022.7 mb - 0.00 in0.0 mm 0.00 in0.0 mm
06:00 AM 3.3°F-15.9°C -4.3°F-20.2°C 70% Calm Calm -- 30.20 in1022.7 mb - 0.00 in0.0 mm 0.00 in0.0 mm
05:50 AM 3.3°F-15.9°C -4.3°F-20.2°C 70% Calm Calm 1.2 mph1.9 kmh 30.20 in1022.7 mb - 0.00 in0.0 mm 0.00 in0.0 mm
05:40 AM 3.3°F-15.9°C -4.3°F-20.2°C 70% 1.2 mph N1.9 kmh N 1.2 mph1.9 kmh 30.20 in1022.7 mb - 0.00 in0.0 mm 0.00 in0.0 mm
05:30 AM 3.3°F-15.9°C -4.3°F-20.2°C 70% Calm Calm -- 30.19 in1022.4 mb - 0.00 in0.0 mm 0.00 in0.0 mm
05:20 AM 3.4°F-15.9°C -4.5°F-20.3°C 69% Calm Calm -- 30.19 in1022.4 mb - 0.00 in0.0 mm 0.00 in0.0 mm
05:10 AM 3.5°F-15.8°C -4.4°F-20.2°C 69% 1.2 mph NNE1.9 kmh NNE 1.2 mph1.9 kmh 30.20 in1022.7 mb - 0.00 in0.0 mm 0.00 in0.0 mm
05:00 AM 3.6°F-15.8°C -4.3°F-20.2°C 69% Calm Calm -- 30.20 in1022.7 mb - 0.00 in0.0 mm 0.00 in0.0 mm
04:50 AM 3.7°F-15.7°C -4.2°F-20.1°C 69% Calm Calm -- 30.20 in1022.7 mb - 0.00 in0.0 mm 0.00 in0.0 mm
04:40 AM 3.7°F-15.7°C -4.2°F-20.1°C 69% Calm Calm -- 30.20 in1022.7 mb - 0.00 in0.0 mm 0.00 in0.0 mm
04:30 AM 3.8°F-15.7°C -4.1°F-20.1°C 69% Calm Calm -- 30.20 in1022.7 mb - 0.00 in0.0 mm 0.00 in0.0 mm
04:20 AM 3.9°F-15.6°C -4.0°F-20.0°C 69% Calm Calm -- 30.20 in1022.7 mb - 0.00 in0.0 mm 0.00 in0.0 mm
04:10 AM 4.0°F-15.6°C -4.2°F-20.1°C 68% Calm Calm -- 30.20 in1022.7 mb - 0.00 in0.0 mm 0.00 in0.0 mm
04:00 AM 4.1°F-15.5°C -4.1°F-20.1°C 68% Calm Calm -- 30.20 in1022.7 mb - 0.00 in0.0 mm 0.00 in0.0 mm
03:50 AM 4.1°F-15.5°C -3.8°F-19.9°C 69% Calm Calm -- 30.20 in1022.7 mb - 0.00 in0.0 mm 0.00 in0.0 mm
03:40 AM 4.0°F-15.6°C -3.9°F-19.9°C 69% Calm Calm -- 30.20 in1022.7 mb - 0.00 in0.0 mm 0.00 in0.0 mm
03:30 AM 4.1°F-15.5°C -3.8°F-19.9°C 69% Calm Calm -- 30.20 in1022.7 mb - 0.00 in0.0 mm 0.00 in0.0 mm
03:20 AM 4.0°F-15.6°C -3.6°F-19.8°C 70% Calm Calm -- 30.20 in1022.7 mb - 0.00 in0.0 mm 0.00 in0.0 mm
03:10 AM 3.8°F-15.7°C -3.8°F-19.9°C 70% Calm Calm -- 30.20 in1022.7 mb - 0.00 in0.0 mm 0.00 in0.0 mm
03:00 AM 3.6°F-15.8°C -4.0°F-20.0°C 70% Calm Calm -- 30.20 in1022.7 mb - 0.00 in0.0 mm 0.00 in0.0 mm
02:50 AM 3.4°F-15.9°C -4.2°F-20.1°C 70% Calm Calm -- 30.21 in1023.0 mb - 0.00 in0.0 mm 0.00 in0.0 mm
02:40 AM 3.2°F-16.0°C -4.4°F-20.2°C 70% Calm Calm -- 30.21 in1023.0 mb - 0.00 in0.0 mm 0.00 in0.0 mm
02:30 AM 3.1°F-16.1°C -4.5°F-20.3°C 70% Calm Calm -- 30.21 in1023.0 mb - 0.00 in0.0 mm 0.00 in0.0 mm
02:20 AM 3.1°F-16.1°C -4.8°F-20.4°C 69% Calm Calm -- 30.20 in1022.7 mb - 0.00 in0.0 mm 0.00 in0.0 mm
02:10 AM 3.3°F-15.9°C -4.6°F-20.3°C 69% Calm Calm -- 30.20 in1022.7 mb - 0.00 in0.0 mm 0.00 in0.0 mm
02:00 AM 3.6°F-15.8°C -4.3°F-20.2°C 69% Calm Calm -- 30.20 in1022.7 mb - 0.00 in0.0 mm 0.00 in0.0 mm
01:50 AM 4.0°F-15.6°C -4.5°F-20.3°C 67% Calm Calm -- 30.20 in1022.7 mb - 0.00 in0.0 mm 0.00 in0.0 mm
01:40 AM 4.4°F-15.3°C -4.1°F-20.1°C 67% Calm Calm -- 30.21 in1023.0 mb - 0.00 in0.0 mm 0.00 in0.0 mm
01:30 AM 4.7°F-15.2°C -4.2°F-20.1°C 66% Calm Calm -- 30.21 in1023.0 mb - 0.00 in0.0 mm 0.00 in0.0 mm
01:20 AM 5.1°F-14.9°C -4.1°F-20.1°C 65% Calm Calm -- 30.21 in1023.0 mb - 0.00 in0.0 mm 0.00 in0.0 mm
01:10 AM 5.5°F-14.7°C -3.7°F-19.8°C 65% Calm Calm -- 30.21 in1023.0 mb - 0.00 in0.0 mm 0.00 in0.0 mm
01:00 AM 6.0°F-14.4°C -3.6°F-19.8°C 64% Calm Calm -- 30.22 in1023.4 mb - 0.00 in0.0 mm 0.00 in0.0 mm
12:50 AM 6.2°F-14.3°C -3.7°F-19.8°C 63% Calm Calm -- 30.22 in1023.4 mb - 0.00 in0.0 mm 0.00 in0.0 mm
12:40 AM 6.4°F-14.2°C -3.5°F-19.7°C 63% Calm Calm -- 30.22 in1023.4 mb - 0.00 in0.0 mm 0.00 in0.0 mm
12:30 AM 6.2°F-14.3°C -3.4°F-19.7°C 64% Calm Calm -- 30.23 in1023.7 mb - 0.00 in0.0 mm 0.00 in0.0 mm
12:20 AM 6.3°F-14.3°C -3.6°F-19.8°C 63% Calm Calm -- 30.23 in1023.7 mb - 0.00 in0.0 mm 0.00 in0.0 mm
12:10 AM 6.4°F-14.2°C -3.5°F-19.7°C 63% Calm Calm -- 30.23 in1023.7 mb - 0.00 in0.0 mm 0.00 in0.0 mm
12:00 AM 6.5°F-14.2°C -3.8°F-19.9°C 62% Calm Calm -- 30.23 in1023.7 mb - 0.00 in0.0 mm 0.00 in0.0 mm